KOGD/OGD METAR and TAF weather

Enter ICAO airport designator
Station Type Date Time Source
KOGD METAR 2024/04/15 09:53 UTC NOAA

KOGD 150953Z AUTO 18008KT 9SM RA BKN024 OVC030 08/04 A2984 RMK AO2 SLP068 P0017 T00830044


Station Type Date Time Source
KOGD Decoded METAR 2024/04/15 09:53 UTC NOAA

OGDEN-HINCKLEY AIRPORT, UT, United States (KOGD) 41-12N 112-01W 1353M
Apr 15, 2024 - 05:53 AM EDT / 2024.04.15 0953 UTC
Wind: from the S (180 degrees) at 9 MPH (8 KT):0
Visibility: 9 mile(s):0
Sky conditions: overcast
Weather: rain
Precipitation last hour: 0.17 inches
Temperature: 46.9 F (8.3 C)
Dew Point: 39.9 F (4.4 C)
Relative Humidity: 76%
Pressure (altimeter): 29.84 in. Hg (1010 hPa)
ob: KOGD 150953Z AUTO 18008KT 9SM RA BKN024 OVC030 08/04 A2984 RMK AO2 SLP068 P0017 T00830044
cycle: 10

Station Type Date Time Source
KOGD TAF 2024/04/15 07:40 UTC NOAA